createdAt,value
2019-03-04T00:06:57.979Z,78.95
2019-03-04T00:17:02.939Z,80.40
2019-03-04T00:27:07.883Z,79.96
2019-03-04T00:37:12.828Z,79.73
2019-03-04T00:47:17.776Z,79.96
2019-03-04T00:57:22.745Z,79.41
2019-03-04T01:07:27.690Z,79.76
2019-03-04T01:17:32.643Z,78.61
2019-03-04T01:27:37.585Z,77.85
2019-03-04T01:37:42.639Z,77.80
2019-03-04T01:47:47.697Z,77.55
2019-03-04T01:57:52.510Z,76.19
2019-03-04T02:07:57.336Z,75.33
2019-03-04T02:18:02.167Z,74.69
2019-03-04T02:28:07.020Z,74.51
2019-03-04T02:38:11.822Z,74.91
2019-03-04T02:48:16.636Z,74.12
2019-03-04T02:58:21.465Z,74.00
2019-03-04T03:08:26.257Z,73.23
2019-03-04T03:18:31.070Z,72.66
2019-03-04T03:28:35.892Z,72.49
2019-03-04T03:38:40.701Z,72.23
2019-03-04T03:48:45.518Z,71.22
2019-03-04T03:58:50.343Z,71.72
2019-03-04T04:08:55.152Z,71.38
2019-03-04T04:18:59.975Z,71.38
2019-03-04T04:29:09.218Z,70.79
2019-03-04T04:39:14.025Z,70.70
2019-03-04T04:49:18.841Z,70.24
2019-03-04T04:59:23.673Z,71.10
2019-03-04T05:09:28.494Z,72.18
2019-03-04T05:19:33.335Z,71.51
2019-03-04T05:29:38.169Z,71.46
2019-03-04T05:39:42.986Z,71.87
2019-03-04T05:49:47.815Z,71.60
2019-03-04T05:59:52.631Z,71.53
2019-03-04T06:09:57.445Z,71.55
2019-03-04T06:20:02.279Z,70.99
2019-03-04T06:30:11.391Z,70.51
2019-03-04T06:40:18.226Z,70.51
2019-03-04T06:50:54.076Z,69.07
2019-03-04T07:01:01.799Z,64.57
2019-03-04T07:11:06.862Z,62.26
2019-03-04T07:21:11.665Z,59.46
2019-03-04T07:31:16.492Z,56.70
2019-03-04T07:41:21.304Z,56.45
2019-03-04T07:51:26.241Z,54.66
2019-03-04T08:01:31.176Z,50.71
2019-03-04T08:12:07.017Z,50.22
2019-03-04T08:22:11.873Z,50.42
2019-03-04T08:32:16.789Z,49.29
2019-03-04T08:42:21.652Z,49.85
2019-03-04T08:52:26.467Z,44.57
2019-03-04T09:02:31.311Z,51.09
2019-03-04T09:12:36.172Z,50.10
2019-03-04T09:22:40.973Z,50.42
2019-03-04T09:32:45.826Z,48.03
2019-03-04T09:42:51.876Z,47.84
2019-03-04T09:52:56.692Z,45.49
2019-03-04T10:03:37.248Z,46.22
2019-03-04T10:13:44.982Z,45.08
2019-03-04T10:24:13.736Z,45.42
2019-03-04T10:34:24.459Z,43.86
2019-03-04T10:44:29.944Z,40.61
2019-03-04T10:54:34.699Z,40.06
2019-03-04T11:04:39.543Z,40.99
2019-03-04T11:14:44.400Z,40.58
2019-03-04T11:24:49.221Z,38.33
2019-03-04T11:34:54.032Z,41.25
2019-03-04T11:44:58.912Z,38.50
2019-03-04T11:55:06.534Z,39.18
2019-03-04T12:05:13.738Z,43.26
2019-03-04T12:15:21.651Z,44.07
2019-03-04T12:25:26.591Z,42.47
2019-03-04T12:35:31.499Z,42.94
2019-03-04T12:45:36.417Z,44.08
2019-03-04T12:55:41.353Z,43.85
2019-03-04T13:05:46.183Z,44.15
2019-03-04T13:15:51.004Z,44.86
2019-03-04T13:25:55.812Z,44.81
2019-03-04T13:36:00.734Z,43.23
2019-03-04T13:46:05.602Z,43.36
2019-03-04T13:56:10.426Z,43.13
2019-03-04T14:06:15.630Z,44.48
2019-03-04T14:16:20.482Z,43.90
2019-03-04T14:26:25.320Z,44.48
2019-03-04T14:36:30.154Z,45.04
2019-03-04T14:46:34.985Z,45.59
2019-03-04T14:56:39.790Z,46.20
2019-03-04T15:06:44.621Z,46.33
2019-03-04T15:16:50.304Z,46.22
2019-03-04T15:26:55.111Z,47.77
2019-03-04T15:36:59.921Z,48.26
2019-03-04T15:47:05.015Z,46.95
2019-03-04T15:57:11.415Z,48.37
2019-03-04T16:07:16.983Z,49.63
2019-03-04T16:17:21.809Z,49.32
2019-03-04T16:27:26.637Z,50.12
2019-03-04T16:37:31.560Z,50.90
2019-03-04T16:47:36.377Z,51.43
2019-03-04T16:57:41.207Z,48.77
2019-03-04T17:07:47.036Z,49.28
2019-03-04T17:17:55.052Z,48.96
2019-03-04T17:28:00.014Z,46.30
2019-03-04T17:38:05.209Z,46.73
2019-03-04T17:48:10.139Z,45.50
2019-03-04T17:58:15.464Z,41.33
2019-03-04T18:08:20.601Z,37.80
2019-03-04T18:18:25.529Z,34.82
2019-03-04T18:28:57.580Z,34.78
2019-03-04T18:39:00.841Z,33.69
2019-03-04T18:49:07.218Z,34.27
2019-03-04T18:59:12.192Z,34.61
2019-03-04T19:09:17.170Z,35.37
2019-03-04T19:19:22.196Z,35.55
2019-03-04T19:29:27.174Z,36.70
2019-03-04T19:39:32.212Z,37.56
2019-03-04T19:49:37.189Z,37.79
2019-03-04T19:59:42.169Z,38.36
2019-03-04T20:09:49.392Z,38.55
2019-03-04T20:19:54.331Z,39.00
2019-03-04T20:29:59.138Z,40.74
2019-03-04T20:40:07.061Z,41.50
2019-03-04T20:50:23.516Z,41.43
2019-03-04T21:00:36.651Z,42.52
2019-03-04T21:10:41.590Z,42.91
2019-03-04T21:20:46.739Z,43.91
2019-03-04T21:31:01.790Z,44.22
2019-03-04T21:41:09.721Z,44.91
2019-03-04T21:51:44.471Z,45.08
2019-03-04T22:01:52.180Z,45.96
2019-03-04T22:11:56.995Z,46.58
2019-03-04T22:22:01.839Z,47.23
2019-03-04T22:32:06.775Z,47.17
2019-03-04T22:42:11.612Z,47.44
2019-03-04T22:52:16.398Z,48.87
2019-03-04T23:02:21.734Z,47.79
2019-03-04T23:12:35.547Z,48.76
2019-03-04T23:22:40.333Z,65.94
2019-03-04T23:32:45.188Z,63.86
2019-03-04T23:42:50.031Z,61.85
2019-03-04T23:52:54.823Z,62.78
